Johann Essberger — CQKG — position and weather

sailwx.info

Track history (hours):
 
Tides and Currents Weather Stations Pressure Air Temp Water Temp Dewpoint Dewpoint Depression Visibility Wind Speed Wind Dir Waves Ship Positions

Johann Essberger

Last reported at 2015-Apr-21 05:33 UTC. Time now 2015-Apr-21 06:33 UTC.
Position N 52°40' E 003°54'.

Length 100 m; draft 7.1 m.

Type: Ship (hazmat cat B). MMSI: 255804460.

Date/timePositionNaut miles runAvg speedWind from/ knotsBaromVisibWave heightAir tempDewpointWater temp
2015-Apr-21 05:33N 52°40' E 003°54'9 8.9
2015-Apr-21 04:33N 52°49' E 003°57'9 9.1
2015-Apr-21 03:31N 52°58' E 004°01'1110.9
2015-Apr-21 02:31N 53°05' E 004°14'1211.7
2015-Apr-21 01:31N 53°14' E 004°27'1111.7
2015-Apr-21 00:33N 53°25' E 004°34'1110.4
2015-Apr-20 23:32N 53°31' E 004°48'1010.4
2015-Apr-20 22:33N 53°35' E 005°04'9 9.4
2015-Apr-20 21:33N 53°38' E 005°19'9 8.8
2015-Apr-20 20:33N 53°41' E 005°33'9 8.8
2015-Apr-20 19:34N 53°43' E 005°48'1010.0
2015-Apr-20 18:33N 53°47' E 006°04'1211.6
2015-Apr-20 17:33N 53°50' E 006°22'1212.4
2015-Apr-20 16:33N 53°53' E 006°43'1312.6
2015-Apr-20 15:33N 53°56' E 007°03'1212.3
2015-Apr-20 14:33N 53°59' E 007°24'1211.7
2015-Apr-20 13:34N 54°02' E 007°43'1110.8
2015-Apr-20 12:34N 54°01' E 008°01'1111.3
2015-Apr-20 11:33N 53°60' E 008°20'1110.6
2015-Apr-20 10:33N 53°57' E 008°38'1010.1
2015-Apr-20 09:34N 53°50' E 008°50'1111.2
2015-Apr-20 08:33N 53°54' E 009°09'0 0.5
2015-Apr-20 07:33N 53°54' E 009°09'1 1.3
2015-Apr-20 06:33N 53°55' E 009°11'8 7.6
2015-Apr-20 05:33N 54°01' E 009°18'5 4.5
2015-Apr-20 04:32N 54°06' E 009°20'8 7.5
2015-Apr-20 03:31N 54°11' E 009°29'18 6.0
2015-Apr-20 00:29N 54°21' E 009°56'7 7.8
2015-Apr-19 23:33N 54°22' E 010°08'1 1.3
2015-Apr-19 22:33N 54°22' E 010°10'4 4.2
2015-Apr-19 21:33N 54°26' E 010°13'7 7.2
2015-Apr-19 20:33N 54°31' E 010°22'2 2.3
2015-Apr-19 19:30N 54°33' E 010°21'3 3.5
2015-Apr-19 18:33N 54°32' E 010°26'1211.0
2015-Apr-19 17:30N 54°36' E 010°46'1111.5
2015-Apr-19 16:34N 54°36' E 011°04'1111.3
2015-Apr-19 15:33N 54°33' E 011°23'1211.5
2015-Apr-19 14:33N 54°28' E 011°41'1211.5
2015-Apr-19 13:34N 54°26' E 012°00'10 9.8
2015-Apr-19 12:33N 54°33' E 012°13'1211.0
2015-Apr-19 11:27N 54°42' E 012°27'3211.0
2015-Apr-19 08:32N 54°47' E 013°22'1111.3
2015-Apr-19 07:33N 54°46' E 013°41'1111.4
2015-Apr-19 06:33N 54°42' E 014°00'3511.2
2015-Apr-19 03:28N 54°41' E 014°60'1111.4
2015-Apr-19 02:30N 54°43' E 015°19'6410.7
2015-Apr-18 20:31N 54°53' E 017°09'4410.6
2015-Apr-18 16:23N 54°57' E 018°25'910.1
2015-Apr-18 15:32N 54°56' E 018°39'1010.2
2015-Apr-18 14:33N 54°53' E 018°56'1010.1
2015-Apr-18 13:33N 54°50' E 019°13'10 9.9
2015-Apr-18 12:33N 54°47' E 019°29'12 9.5
2015-Apr-18 11:15N 54°41' E 019°48'8 7.0
2015-Apr-18 10:11N 54°38' E 019°60'5 0.3
2015-Apr-17 16:09N 54°39' E 019°51'711.6
2015-Apr-17 15:31N 54°43' E 019°40'1111.2
2015-Apr-17 14:33N 54°49' E 019°24'1110.6
2015-Apr-17 13:33N 54°56' E 019°10'1110.9
2015-Apr-17 12:32N 55°06' E 019°02'308 9.3
2015-Apr-16 03:32N 59°39' E 023°28'1111.1
2015-Apr-16 02:33N 59°42' E 023°48'3411.3
2015-Apr-15 23:33N 59°50' E 024°54'3711.0
2015-Apr-15 20:13N 60°02' E 026°03'811.5
2015-Apr-15 19:33N 60°07' E 026°15'1110.8
2015-Apr-15 18:34N 60°16' E 026°28'1212.4
2015-Apr-15 17:33N 60°23' E 026°48'5 4.6
2015-Apr-15 16:33N 60°26' E 026°55'0 0.0
2015-Apr-14 11:23N 60°26' E 026°55'1 1.5
2015-Apr-14 10:34N 60°25' E 026°54'9 9.4
2015-Apr-14 09:33N 60°20' E 026°37'1111.2
2015-Apr-14 08:32N 60°12' E 026°22'0 0.4
2015-Apr-14 07:32N 60°12' E 026°21'0 0.0
2015-Apr-14 06:33N 60°12' E 026°21'0 0.0
2015-Apr-14 05:33N 60°12' E 026°21'0 0.0
2015-Apr-14 04:33N 60°12' E 026°21'0 0.0
2015-Apr-14 03:33N 60°12' E 026°21'0 0.0
2015-Apr-14 02:33N 60°12' E 026°21'0 0.0
2015-Apr-14 01:33N 60°12' E 026°21'0 0.0
2015-Apr-14 00:33N 60°12' E 026°21'0 0.0
2015-Apr-13 23:31N 60°12' E 026°21'0 0.0
2015-Apr-13 22:33N 60°12' E 026°21'0 0.0
2015-Apr-13 21:33N 60°12' E 026°21'0 0.0
2015-Apr-13 20:33N 60°12' E 026°21'0 0.0
2015-Apr-13 19:33N 60°12' E 026°21'0 0.0
2015-Apr-13 18:33N 60°12' E 026°21'0 0.0
2015-Apr-13 17:33N 60°12' E 026°21'0 0.0
2015-Apr-13 16:33N 60°12' E 026°21'0 0.0
2015-Apr-13 15:33N 60°12' E 026°21'0 0.0
2015-Apr-13 14:33N 60°12' E 026°21'0 0.0
2015-Apr-13 13:33N 60°12' E 026°21'0 0.0
2015-Apr-13 12:33N 60°12' E 026°21'0 0.0
2015-Apr-13 11:33N 60°12' E 026°21'0 0.0
2015-Apr-13 10:33N 60°12' E 026°21'0 0.0
2015-Apr-13 09:33N 60°12' E 026°21'1 1.4
2015-Apr-13 08:33N 60°10' E 026°21'56 2.7
2015-Apr-12 11:33N 59°45' E 024°40'1110.9
2015-Apr-12 10:33N 59°42' E 024°19'2610.9
2015-Apr-12 08:08N 59°34' E 023°30'6210.5
2015-Apr-12 02:17N 59°28' E 021°29'6 9.0
2015-Apr-12 01:33N 59°31' E 021°19'1111.5
2015-Apr-12 00:34N 59°43' E 021°20'1611.6
2015-Apr-11 23:13N 59°56' E 021°38'0 0.0
2015-Apr-11 11:07N 59°56' E 021°39'713.3
2015-Apr-11 10:34N 59°52' E 021°27'1111.3
2015-Apr-11 09:34N 59°41' E 021°19'  
Track history (hours):
 
Tides and Currents Weather Stations Pressure Air Temp Water Temp Dewpoint Dewpoint Depression Visibility Wind Speed Wind Dir Waves Ship Positions

Johann Essberger

Last reported at 2015-Apr-21 05:33 UTC. Time now 2015-Apr-21 06:33 UTC.
Position N 52°40' E 003°54'.

Length 100 m; draft 7.1 m.

Type: Ship (hazmat cat B). MMSI: 255804460.

Date/timePositionNaut miles runAvg speedWind from/ knotsBaromVisibWave heightAir tempDewpointWater temp
2015-Apr-21 05:33N 52°40' E 003°54'9 8.9
2015-Apr-21 04:33N 52°49' E 003°57'9 9.1
2015-Apr-21 03:31N 52°58' E 004°01'1110.9
2015-Apr-21 02:31N 53°05' E 004°14'1211.7
2015-Apr-21 01:31N 53°14' E 004°27'1111.7
2015-Apr-21 00:33N 53°25' E 004°34'1110.4
2015-Apr-20 23:32N 53°31' E 004°48'1010.4
2015-Apr-20 22:33N 53°35' E 005°04'9 9.4
2015-Apr-20 21:33N 53°38' E 005°19'9 8.8
2015-Apr-20 20:33N 53°41' E 005°33'9 8.8
2015-Apr-20 19:34N 53°43' E 005°48'1010.0
2015-Apr-20 18:33N 53°47' E 006°04'1211.6
2015-Apr-20 17:33N 53°50' E 006°22'1212.4
2015-Apr-20 16:33N 53°53' E 006°43'1312.6
2015-Apr-20 15:33N 53°56' E 007°03'1212.3
2015-Apr-20 14:33N 53°59' E 007°24'1211.7
2015-Apr-20 13:34N 54°02' E 007°43'1110.8
2015-Apr-20 12:34N 54°01' E 008°01'1111.3
2015-Apr-20 11:33N 53°60' E 008°20'1110.6
2015-Apr-20 10:33N 53°57' E 008°38'1010.1
2015-Apr-20 09:34N 53°50' E 008°50'1111.2
2015-Apr-20 08:33N 53°54' E 009°09'0 0.5
2015-Apr-20 07:33N 53°54' E 009°09'1 1.3
2015-Apr-20 06:33N 53°55' E 009°11'8 7.6
2015-Apr-20 05:33N 54°01' E 009°18'5 4.5
2015-Apr-20 04:32N 54°06' E 009°20'8 7.5
2015-Apr-20 03:31N 54°11' E 009°29'18 6.0
2015-Apr-20 00:29N 54°21' E 009°56'7 7.8
2015-Apr-19 23:33N 54°22' E 010°08'1 1.3
2015-Apr-19 22:33N 54°22' E 010°10'4 4.2
2015-Apr-19 21:33N 54°26' E 010°13'7 7.2
2015-Apr-19 20:33N 54°31' E 010°22'2 2.3
2015-Apr-19 19:30N 54°33' E 010°21'3 3.5
2015-Apr-19 18:33N 54°32' E 010°26'1211.0
2015-Apr-19 17:30N 54°36' E 010°46'1111.5
2015-Apr-19 16:34N 54°36' E 011°04'1111.3
2015-Apr-19 15:33N 54°33' E 011°23'1211.5
2015-Apr-19 14:33N 54°28' E 011°41'1211.5
2015-Apr-19 13:34N 54°26' E 012°00'10 9.8
2015-Apr-19 12:33N 54°33' E 012°13'1211.0
2015-Apr-19 11:27N 54°42' E 012°27'3211.0
2015-Apr-19 08:32N 54°47' E 013°22'1111.3
2015-Apr-19 07:33N 54°46' E 013°41'1111.4
2015-Apr-19 06:33N 54°42' E 014°00'3511.2
2015-Apr-19 03:28N 54°41' E 014°60'1111.4
2015-Apr-19 02:30N 54°43' E 015°19'6410.7
2015-Apr-18 20:31N 54°53' E 017°09'4410.6
2015-Apr-18 16:23N 54°57' E 018°25'910.1
2015-Apr-18 15:32N 54°56' E 018°39'1010.2
2015-Apr-18 14:33N 54°53' E 018°56'1010.1
2015-Apr-18 13:33N 54°50' E 019°13'10 9.9
2015-Apr-18 12:33N 54°47' E 019°29'12 9.5
2015-Apr-18 11:15N 54°41' E 019°48'8 7.0
2015-Apr-18 10:11N 54°38' E 019°60'5 0.3
2015-Apr-17 16:09N 54°39' E 019°51'711.6
2015-Apr-17 15:31N 54°43' E 019°40'1111.2
2015-Apr-17 14:33N 54°49' E 019°24'1110.6
2015-Apr-17 13:33N 54°56' E 019°10'1110.9
2015-Apr-17 12:32N 55°06' E 019°02'308 9.3
2015-Apr-16 03:32N 59°39' E 023°28'1111.1
2015-Apr-16 02:33N 59°42' E 023°48'3411.3
2015-Apr-15 23:33N 59°50' E 024°54'3711.0
2015-Apr-15 20:13N 60°02' E 026°03'811.5
2015-Apr-15 19:33N 60°07' E 026°15'1110.8
2015-Apr-15 18:34N 60°16' E 026°28'1212.4
2015-Apr-15 17:33N 60°23' E 026°48'5 4.6
2015-Apr-15 16:33N 60°26' E 026°55'0 0.0
2015-Apr-14 11:23N 60°26' E 026°55'1 1.5
2015-Apr-14 10:34N 60°25' E 026°54'9 9.4
2015-Apr-14 09:33N 60°20' E 026°37'1111.2
2015-Apr-14 08:32N 60°12' E 026°22'0 0.4
2015-Apr-14 07:32N 60°12' E 026°21'0 0.0
2015-Apr-14 06:33N 60°12' E 026°21'0 0.0
2015-Apr-14 05:33N 60°12' E 026°21'0 0.0
2015-Apr-14 04:33N 60°12' E 026°21'0 0.0
2015-Apr-14 03:33N 60°12' E 026°21'0 0.0
2015-Apr-14 02:33N 60°12' E 026°21'0 0.0
2015-Apr-14 01:33N 60°12' E 026°21'0 0.0
2015-Apr-14 00:33N 60°12' E 026°21'0 0.0
2015-Apr-13 23:31N 60°12' E 026°21'0 0.0
2015-Apr-13 22:33N 60°12' E 026°21'0 0.0
2015-Apr-13 21:33N 60°12' E 026°21'0 0.0
2015-Apr-13 20:33N 60°12' E 026°21'0 0.0
2015-Apr-13 19:33N 60°12' E 026°21'0 0.0
2015-Apr-13 18:33N 60°12' E 026°21'0 0.0
2015-Apr-13 17:33N 60°12' E 026°21'0 0.0
2015-Apr-13 16:33N 60°12' E 026°21'0 0.0
2015-Apr-13 15:33N 60°12' E 026°21'0 0.0
2015-Apr-13 14:33N 60°12' E 026°21'0 0.0
2015-Apr-13 13:33N 60°12' E 026°21'0 0.0
2015-Apr-13 12:33N 60°12' E 026°21'0 0.0
2015-Apr-13 11:33N 60°12' E 026°21'0 0.0
2015-Apr-13 10:33N 60°12' E 026°21'0 0.0
2015-Apr-13 09:33N 60°12' E 026°21'1 1.4
2015-Apr-13 08:33N 60°10' E 026°21'56 2.7
2015-Apr-12 11:33N 59°45' E 024°40'1110.9
2015-Apr-12 10:33N 59°42' E 024°19'2610.9
2015-Apr-12 08:08N 59°34' E 023°30'6210.5
2015-Apr-12 02:17N 59°28' E 021°29'6 9.0
2015-Apr-12 01:33N 59°31' E 021°19'1111.5
2015-Apr-12 00:34N 59°43' E 021°20'1611.6
2015-Apr-11 23:13N 59°56' E 021°38'0 0.0
2015-Apr-11 11:07N 59°56' E 021°39'713.3
2015-Apr-11 10:34N 59°52' E 021°27'1111.3
2015-Apr-11 09:34N 59°41' E 021°19'  

Dump ship's entire track history